Weather at Blackpool International Airport

Public forecast

Using degrees Celsius for public forecast. Weather courtesy of forecast.io.

Current aviation weather report (METAR) for Blackpool International Airport

Retrieved 2021/10/25 06:20 UTC (0 seconds ago):

EGNH 250620Z 26013KT 9999 SCT025 12/09 Q1009

Aviation forecast (TAF) for Blackpool International Airport

Forecast is more than 12 hours old.

Retrieved 2021/03/07 18:28 UTC (8 months ago):

TAF EGNH 072121Z 0718/0821 CNL